Estación de Contra Coronel
Ultimos registro cada 15 minutos 87
| N° | Estación | Fecha / Hora | Temperatura | Humedad | Lluvia | Velocidad | Dirección | Radiación | Presion |
| 87 | Contra Coronel | 05-09-2026 21:30 | 5,5 | 52,1 | 0 | 0,7 | 298 | 0,6 | 1023,5 |
| 86 | Contra Coronel | 05-09-2026 21:15 | 5,6 | 58,6 | 0 | 0,3 | 185 | 0,6 | 1023,6 |
| 85 | Contra Coronel | 05-09-2026 21:00 | 5,2 | 54,9 | 0 | 0 | 234 | 0,6 | 1023,6 |
| 84 | Contra Coronel | 05-09-2026 20:45 | 5,8 | 54,6 | 0 | 0 | 206 | 0,6 | 1023,8 |
| 83 | Contra Coronel | 05-09-2026 20:30 | 6,4 | 52,1 | 0 | 0,3 | 261 | 0,6 | 1023,9 |
| 82 | Contra Coronel | 05-09-2026 20:15 | 6,6 | 56,7 | 0 | 0,3 | 258 | 0,6 | 1024 |
| 81 | Contra Coronel | 05-09-2026 20:00 | 6,3 | 54,9 | 0 | 0,3 | 260 | 0,6 | 1023,9 |
| 80 | Contra Coronel | 05-09-2026 19:45 | 4,8 | 70,9 | 0 | 0,3 | 191 | 0,6 | 1023,9 |
| 79 | Contra Coronel | 05-09-2026 19:30 | 5,3 | 68,9 | 0 | 0 | 194 | 0,6 | 1024 |
| 78 | Contra Coronel | 05-09-2026 19:15 | 5,8 | 68,1 | 0 | 0 | 225 | 0,6 | 1024 |
| 77 | Contra Coronel | 05-09-2026 19:00 | 7,5 | 59,2 | 0 | 0,3 | 218 | 0,6 | 1024 |
| 76 | Contra Coronel | 05-09-2026 18:45 | 9,3 | 44,1 | 0 | 0,7 | 135 | 0,6 | 1024,1 |
| 75 | Contra Coronel | 05-09-2026 18:30 | 9,8 | 42 | 0 | 1,7 | 133 | 4,4 | 1024,1 |
| 74 | Contra Coronel | 05-09-2026 18:15 | 10,7 | 43,9 | 0 | 1 | 131 | 18,1 | 1024,3 |
| 73 | Contra Coronel | 05-09-2026 18:00 | 11,2 | 44,3 | 0 | 1 | 136 | 55,6 | 1024,2 |
| 72 | Contra Coronel | 05-09-2026 17:45 | 11,6 | 39,6 | 0 | 2 | 139 | 109,4 | 1024,2 |
| 71 | Contra Coronel | 05-09-2026 17:30 | 12 | 35,8 | 0 | 2 | 142 | 154,4 | 1024,2 |
| 70 | Contra Coronel | 05-09-2026 17:15 | 12,3 | 34 | 0 | 2 | 126 | 194,4 | 1024,3 |
| 69 | Contra Coronel | 05-09-2026 17:00 | 12,5 | 34,9 | 0 | 2 | 140 | 235,6 | 1024,3 |
| 68 | Contra Coronel | 05-09-2026 16:45 | 12,6 | 35,2 | 0 | 2,3 | 124 | 275,6 | 1024,4 |
| 67 | Contra Coronel | 05-09-2026 16:30 | 12,8 | 35,3 | 0 | 2,3 | 143 | 315,6 | 1024,4 |
| 66 | Contra Coronel | 05-09-2026 16:15 | 13 | 40,7 | 0 | 1,7 | 122 | 354,4 | 1024,5 |
| 65 | Contra Coronel | 05-09-2026 16:00 | 12,9 | 36 | 0 | 2,7 | 146 | 393,1 | 1024,4 |
| 64 | Contra Coronel | 05-09-2026 15:45 | 12,7 | 38,1 | 0 | 3 | 147 | 425,6 | 1024,6 |
| 63 | Contra Coronel | 05-09-2026 15:30 | 12,6 | 37 | 0 | 3 | 147 | 458,1 | 1024,5 |
| 62 | Contra Coronel | 05-09-2026 15:15 | 12,7 | 41,4 | 0 | 1,7 | 129 | 491,9 | 1024,8 |
| 61 | Contra Coronel | 05-09-2026 15:00 | 12,6 | 39 | 0 | 3 | 147 | 518,1 | 1024,8 |
| 60 | Contra Coronel | 05-09-2026 14:45 | 12,2 | 40,6 | 0 | 2,3 | 143 | 540,6 | 1025 |
| 59 | Contra Coronel | 05-09-2026 14:30 | 12,2 | 40,2 | 0 | 2,3 | 145 | 561,9 | 1025,1 |
| 58 | Contra Coronel | 05-09-2026 14:15 | 12,2 | 39,2 | 0 | 2,7 | 138 | 581,9 | 1025,3 |
| 57 | Contra Coronel | 05-09-2026 14:00 | 11,8 | 41,1 | 0 | 2,7 | 147 | 600,6 | 1025,4 |
| 56 | Contra Coronel | 05-09-2026 13:45 | 11,6 | 46,6 | 0 | 2 | 168 | 614,4 | 1025,5 |
| 55 | Contra Coronel | 05-09-2026 13:30 | 10,9 | 44,7 | 0 | 2,7 | 167 | 624,4 | 1025,7 |
| 54 | Contra Coronel | 05-09-2026 13:15 | 10,8 | 47,3 | 0 | 2,3 | 159 | 631,9 | 1026 |
| 53 | Contra Coronel | 05-09-2026 13:00 | 11,2 | 49,5 | 0 | 2,3 | 157 | 635,6 | 1026,1 |
| 52 | Contra Coronel | 05-09-2026 12:45 | 10,8 | 44,9 | 0 | 2 | 156 | 635,6 | 1026,4 |
| 51 | Contra Coronel | 05-09-2026 12:30 | 10,9 | 47,4 | 0 | 1,3 | 174 | 631,9 | 1026,7 |
| 50 | Contra Coronel | 05-09-2026 12:15 | 10,4 | 45,1 | 0 | 2,3 | 160 | 621,9 | 1026,9 |
| 49 | Contra Coronel | 05-09-2026 12:00 | 10,8 | 47,6 | 0 | 1,7 | 177 | 611,9 | 1027 |
| 48 | Contra Coronel | 05-09-2026 11:45 | 10,8 | 45,6 | 0 | 1,3 | 198 | 600,6 | 1027,1 |
| 47 | Contra Coronel | 05-09-2026 11:30 | 10,2 | 47 | 0 | 1 | 157 | 585,6 | 1027,1 |
| 46 | Contra Coronel | 05-09-2026 11:15 | 9,8 | 48 | 0 | 1,7 | 161 | 564,4 | 1027,2 |
| 45 | Contra Coronel | 05-09-2026 11:00 | 9,8 | 49,3 | 0 | 0,7 | 163 | 543,1 | 1027,4 |
| 44 | Contra Coronel | 05-09-2026 10:45 | 9,9 | 47,6 | 0 | 0,7 | 108 | 516,9 | 1027,5 |
| 43 | Contra Coronel | 05-09-2026 10:30 | 8,6 | 59 | 0 | 1,3 | 154 | 490,6 | 1027,5 |
| 42 | Contra Coronel | 05-09-2026 10:15 | 8,3 | 66,5 | 0 | 1 | 168 | 459,4 | 1027,5 |
| 41 | Contra Coronel | 05-09-2026 10:00 | 8,1 | 64,4 | 0 | 0,7 | 194 | 428,1 | 1027,5 |
| 40 | Contra Coronel | 05-09-2026 09:45 | 7,5 | 68,7 | 0 | 1,7 | 187 | 393,1 | 1027,5 |
| 39 | Contra Coronel | 05-09-2026 09:30 | 7,4 | 70,4 | 0 | 1,3 | 190 | 356,9 | 1027,3 |
| 38 | Contra Coronel | 05-09-2026 09:15 | 6,7 | 76,9 | 0 | 1 | 171 | 318,1 | 1027,3 |
| 37 | Contra Coronel | 05-09-2026 09:00 | 7,5 | 76,4 | 0 | 0,3 | 281 | 279,4 | 1027,3 |
| 36 | Contra Coronel | 05-09-2026 08:45 | 6,3 | 82,2 | 0 | 0 | 209 | 236,9 | 1027,1 |
| 35 | Contra Coronel | 05-09-2026 08:30 | 5,6 | 89,9 | 0 | 0 | 229 | 194,4 | 1027 |
| 34 | Contra Coronel | 05-09-2026 08:15 | 4,4 | 99,2 | 0 | 0 | 272 | 150,6 | 1026,8 |
| 33 | Contra Coronel | 05-09-2026 08:00 | 3,2 | 99,3 | 0 | 0 | 243 | 113,1 | 1026,6 |
| 32 | Contra Coronel | 05-09-2026 07:45 | 2,6 | 99,9 | 0 | 0 | 161 | 73,1 | 1026,5 |
| 31 | Contra Coronel | 05-09-2026 07:30 | 1,5 | 100 | 0 | 0 | 157 | 19,4 | 1026,4 |
| 30 | Contra Coronel | 05-09-2026 07:15 | 0,5 | 100 | 0 | 0 | 160 | 5,6 | 1026,4 |
| 29 | Contra Coronel | 05-09-2026 07:00 | 0,9 | 100 | 0 | 0 | 183 | 0,6 | 1026,4 |
| 28 | Contra Coronel | 05-09-2026 06:45 | 1,5 | 100 | 0 | 0 | 93 | 0,6 | 1026,2 |
| 27 | Contra Coronel | 05-09-2026 06:30 | 2 | 100 | 0 | 0 | 174 | 0,6 | 1026,2 |
| 26 | Contra Coronel | 05-09-2026 06:15 | 2,6 | 100 | 0 | 0 | 219 | 0,6 | 1026,1 |
| 25 | Contra Coronel | 05-09-2026 06:00 | 2,5 | 100 | 0 | 0 | 191 | 0,6 | 1025,9 |
| 24 | Contra Coronel | 05-09-2026 05:45 | 2,2 | 100 | 0 | 0 | 254 | 0,6 | 1025,9 |
| 23 | Contra Coronel | 05-09-2026 05:30 | 2,1 | 99,8 | 0 | 0 | 254 | 0,6 | 1025,8 |
| 22 | Contra Coronel | 05-09-2026 05:15 | 2,9 | 99,9 | 0 | 0 | 309 | 0,6 | 1025,8 |
| 21 | Contra Coronel | 05-09-2026 05:00 | 3,6 | 99,9 | 0 | 0 | 295 | 0,6 | 1025,7 |
| 20 | Contra Coronel | 05-09-2026 04:45 | 4,2 | 99,7 | 0 | 0 | 187 | 0,6 | 1025,6 |
| 19 | Contra Coronel | 05-09-2026 04:30 | 4,6 | 99,7 | 0 | 0,7 | 183 | 0,6 | 1025,5 |
| 18 | Contra Coronel | 05-09-2026 04:15 | 5 | 99,6 | 0 | 0,7 | 192 | 0,6 | 1025,5 |
| 17 | Contra Coronel | 05-09-2026 04:00 | 5,1 | 99,6 | 0 | 0,3 | 181 | 0,6 | 1025,6 |
| 16 | Contra Coronel | 05-09-2026 03:45 | 5,4 | 99,6 | 0 | 0,7 | 187 | 0,6 | 1025,7 |
| 15 | Contra Coronel | 05-09-2026 03:30 | 5,5 | 99,7 | 0 | 0,7 | 190 | 0,6 | 1025,9 |
| 14 | Contra Coronel | 05-09-2026 03:15 | 5,7 | 99,6 | 0 | 0 | 195 | 0,6 | 1025,9 |
| 13 | Contra Coronel | 05-09-2026 03:00 | 6,2 | 99,6 | 0 | 0 | 195 | 0,6 | 1026,1 |
| 12 | Contra Coronel | 05-09-2026 02:45 | 6,3 | 99,7 | 0 | 0,7 | 187 | 0,6 | 1026,1 |
| 11 | Contra Coronel | 05-09-2026 02:30 | 5,4 | 99,8 | 0 | 0 | 194 | 0,6 | 1026,1 |
| 10 | Contra Coronel | 05-09-2026 02:15 | 4,8 | 99,6 | 0 | 0 | 197 | 0,6 | 1026 |
| 9 | Contra Coronel | 05-09-2026 02:00 | 5 | 99,5 | 0 | 0 | 197 | 0,6 | 1025,8 |
| 8 | Contra Coronel | 05-09-2026 01:45 | 4,9 | 99,2 | 0 | 0 | 197 | 0,6 | 1026 |
| 7 | Contra Coronel | 05-09-2026 01:30 | 5,8 | 99,1 | 0 | 0 | 197 | 0,6 | 1025,9 |
| 6 | Contra Coronel | 05-09-2026 01:15 | 6,4 | 99,1 | 0 | 0 | 197 | 0,6 | 1025,8 |
| 5 | Contra Coronel | 05-09-2026 01:00 | 7 | 99,2 | 0 | 0 | 202 | 0,6 | 1025,8 |
| 4 | Contra Coronel | 05-09-2026 00:45 | 7,2 | 99,3 | 0 | 0 | 202 | 0,6 | 1025,7 |
| 3 | Contra Coronel | 05-09-2026 00:30 | 7,3 | 99,3 | 0 | 0,3 | 194 | 0,6 | 1025,7 |
| 2 | Contra Coronel | 05-09-2026 00:15 | 7,5 | 99,4 | 0 | 0,3 | 183 | 0,6 | 1025,8 |
| 1 | Contra Coronel | 05-09-2026 00:00 | 7,6 | 99,4 | 0 | 0 | 163 | 0,6 | 1025,8 |